EWG7276 EDDH-LOWS
Flight info
| Callsign | EWG7276 |
|---|---|
| Flight time | 1h 4m |
| Altitude | 31000 |
| Route | AMLUH2G AMLUH M852 DENIX DCT ZUCKA DCT ARMUT T703 ARBAX T108 OSTES T700 BADIT BADIT2R |
| Aircraft | A320/M-SDE3FGHIRWY/LB1 |
Departure
| Time | 2026-04-26 17:02 |
|---|---|
| Airport | Hamburg Helmut Schmidt Airport (EDDH) |
Arrival
| Time | 2026-04-26 18:07 |
|---|---|
| Airport | Salzburg Airport (LOWS) |
| Time | Latitude | Longitude | Altitude | Speed | Heading |
|---|---|---|---|---|---|
| 2026-04-26 16:04 | 53.63292 | 10.00358 | 41 ft | 0 kts | 87° |
| 2026-04-26 16:50 | 53.63292 | 10.00354 | 48 ft | 2 kts | 87° |
| 2026-04-26 16:50 | 53.63291 | 10.00327 | 48 ft | 2 kts | 88° |
| 2026-04-26 16:50 | 53.63291 | 10.00299 | 48 ft | 2 kts | 89° |
| 2026-04-26 16:51 | 53.63291 | 10.00271 | 48 ft | 2 kts | 96° |
| 2026-04-26 16:51 | 53.63294 | 10.00243 | 48 ft | 2 kts | 145° |
| 2026-04-26 16:51 | 53.63305 | 10.00236 | 42 ft | 1 kts | 178° |
| 2026-04-26 16:51 | 53.63306 | 10.00236 | 43 ft | 0 kts | 178° |
| 2026-04-26 16:55 | 53.63271 | 10.00239 | 48 ft | 7 kts | 176° |
| 2026-04-26 16:55 | 53.63223 | 10.00245 | 48 ft | 6 kts | 175° |
| 2026-04-26 16:55 | 53.63195 | 10.00249 | 48 ft | 7 kts | 175° |
| 2026-04-26 16:55 | 53.63104 | 10.00260 | 48 ft | 9 kts | 175° |
| 2026-04-26 16:56 | 53.63015 | 10.00205 | 47 ft | 7 kts | 213° |
| 2026-04-26 16:56 | 53.62975 | 10.00162 | 48 ft | 7 kts | 213° |
| 2026-04-26 16:56 | 53.62924 | 10.00106 | 48 ft | 8 kts | 212° |
| 2026-04-26 16:57 | 53.62889 | 10.00070 | 48 ft | 5 kts | 214° |
| 2026-04-26 16:57 | 53.62880 | 10.00057 | 46 ft | 0 kts | 220° |
| 2026-04-26 16:57 | 53.62859 | 10.00006 | 48 ft | 3 kts | 242° |
| 2026-04-26 16:58 | 53.62848 | 9.99970 | 48 ft | 4 kts | 243° |
| 2026-04-26 16:58 | 53.62846 | 9.99965 | 48 ft | 0 kts | 243° |
| 2026-04-26 16:59 | 53.62827 | 9.99900 | 47 ft | 6 kts | 243° |
| 2026-04-26 17:00 | 53.62830 | 9.99777 | 45 ft | 0 kts | 332° |
| 2026-04-26 17:01 | 53.62832 | 9.99776 | 45 ft | 2 kts | 332° |
| 2026-04-26 17:01 | 53.62957 | 9.99667 | 45 ft | 53 kts | 333° |
| 2026-04-26 17:02 | 53.63484 | 9.99211 | 47 ft | 115 kts | 333° |
| 2026-04-26 17:02 | 53.64337 | 9.98472 | 171 ft | 150 kts | 332° |
| 2026-04-26 17:02 | 53.65261 | 9.97707 | 1162 ft | 146 kts | 329° |
| 2026-04-26 17:02 | 53.66144 | 9.96955 | 1997 ft | 142 kts | 328° |
| 2026-04-26 17:03 | 53.67024 | 9.96191 | 2734 ft | 142 kts | 327° |
| 2026-04-26 17:03 | 53.67901 | 9.95425 | 3417 ft | 145 kts | 328° |
| 2026-04-26 17:03 | 53.68903 | 9.94730 | 3779 ft | 170 kts | 343° |
| 2026-04-26 17:03 | 53.70173 | 9.94656 | 4178 ft | 189 kts | 353° |
| 2026-04-26 17:04 | 53.71508 | 9.94679 | 4799 ft | 195 kts | 356° |
| 2026-04-26 17:04 | 53.72820 | 9.95512 | 5569 ft | 219 kts | 33° |
| 2026-04-26 17:04 | 53.73689 | 9.97768 | 6346 ft | 240 kts | 58° |
| 2026-04-26 17:04 | 53.74204 | 10.00526 | 7040 ft | 255 kts | 74° |
| 2026-04-26 17:05 | 53.74058 | 10.03579 | 7700 ft | 273 kts | 102° |
| 2026-04-26 17:05 | 53.73255 | 10.06616 | 8123 ft | 297 kts | 120° |
| 2026-04-26 17:05 | 53.72132 | 10.09733 | 8507 ft | 320 kts | 119° |
| 2026-04-26 17:05 | 53.70999 | 10.13046 | 9190 ft | 330 kts | 118° |
| 2026-04-26 17:06 | 53.69811 | 10.16401 | 9981 ft | 337 kts | 126° |
| 2026-04-26 17:06 | 53.68225 | 10.19315 | 10543 ft | 350 kts | 143° |
| 2026-04-26 17:06 | 53.66115 | 10.21524 | 10826 ft | 365 kts | 162° |
| 2026-04-26 17:06 | 53.63665 | 10.22774 | 11397 ft | 370 kts | 171° |
| 2026-04-26 17:07 | 53.61186 | 10.23869 | 12094 ft | 367 kts | 171° |
| 2026-04-26 17:07 | 53.58788 | 10.24967 | 12292 ft | 349 kts | 171° |
| 2026-04-26 17:07 | 53.56455 | 10.26046 | 12294 ft | 343 kts | 171° |
| 2026-04-26 17:07 | 53.54148 | 10.27106 | 12517 ft | 344 kts | 171° |
| 2026-04-26 17:08 | 53.51834 | 10.28166 | 13385 ft | 346 kts | 171° |
| 2026-04-26 17:08 | 53.49525 | 10.29219 | 14165 ft | 349 kts | 171° |
| 2026-04-26 17:08 | 53.47159 | 10.30297 | 14844 ft | 353 kts | 171° |
| 2026-04-26 17:08 | 53.44760 | 10.31389 | 15517 ft | 356 kts | 171° |
| 2026-04-26 17:09 | 53.42389 | 10.32471 | 16182 ft | 360 kts | 171° |
| 2026-04-26 17:09 | 53.40745 | 10.33220 | 16625 ft | 362 kts | 171° |
| 2026-04-26 17:09 | 53.37500 | 10.34687 | 17481 ft | 367 kts | 171° |
| 2026-04-26 17:09 | 53.35010 | 10.35802 | 18137 ft | 371 kts | 171° |
| 2026-04-26 17:10 | 53.32502 | 10.36922 | 18765 ft | 374 kts | 171° |
| 2026-04-26 17:10 | 53.29967 | 10.38053 | 19329 ft | 378 kts | 171° |
| 2026-04-26 17:10 | 53.27441 | 10.39183 | 19881 ft | 381 kts | 171° |
| 2026-04-26 17:10 | 53.24868 | 10.40334 | 20445 ft | 384 kts | 171° |
| 2026-04-26 17:11 | 53.22241 | 10.41504 | 20645 ft | 400 kts | 170° |
| 2026-04-26 17:11 | 53.19492 | 10.42719 | 20776 ft | 416 kts | 170° |
| 2026-04-26 17:11 | 53.16655 | 10.43972 | 21125 ft | 424 kts | 170° |
| 2026-04-26 17:11 | 53.13786 | 10.45250 | 21611 ft | 428 kts | 169° |
| 2026-04-26 17:12 | 53.07946 | 10.47481 | 22655 ft | 431 kts | 174° |
| 2026-04-26 17:12 | 53.05016 | 10.48373 | 23181 ft | 433 kts | 175° |
| 2026-04-26 17:13 | 52.99044 | 10.50062 | 24125 ft | 439 kts | 175° |
| 2026-04-26 17:13 | 52.96024 | 10.50934 | 24555 ft | 441 kts | 175° |
| 2026-04-26 17:13 | 52.89949 | 10.52781 | 25368 ft | 446 kts | 174° |
| 2026-04-26 17:14 | 52.86887 | 10.53742 | 25782 ft | 449 kts | 174° |
| 2026-04-26 17:14 | 52.80714 | 10.55672 | 26584 ft | 453 kts | 174° |
| 2026-04-26 17:14 | 52.77645 | 10.56618 | 26966 ft | 455 kts | 174° |
| 2026-04-26 17:15 | 52.71376 | 10.58533 | 27731 ft | 460 kts | 174° |
| 2026-04-26 17:15 | 52.68222 | 10.59492 | 28103 ft | 462 kts | 174° |
| 2026-04-26 17:15 | 52.65049 | 10.60455 | 28492 ft | 464 kts | 174° |
| 2026-04-26 17:16 | 52.62039 | 10.61371 | 28840 ft | 466 kts | 174° |
| 2026-04-26 17:16 | 52.58839 | 10.62350 | 29211 ft | 468 kts | 174° |
| 2026-04-26 17:16 | 52.55626 | 10.63335 | 29577 ft | 470 kts | 174° |
| 2026-04-26 17:16 | 52.52405 | 10.64324 | 29940 ft | 472 kts | 173° |
| 2026-04-26 17:17 | 52.49163 | 10.65316 | 30304 ft | 474 kts | 173° |
| 2026-04-26 17:17 | 52.45895 | 10.66310 | 30603 ft | 476 kts | 173° |
| 2026-04-26 17:17 | 52.42671 | 10.67284 | 30888 ft | 478 kts | 173° |
| 2026-04-26 17:17 | 52.39395 | 10.68268 | 31169 ft | 479 kts | 173° |
| 2026-04-26 17:18 | 52.36114 | 10.69255 | 31280 ft | 477 kts | 173° |
| 2026-04-26 17:18 | 52.32892 | 10.70235 | 31298 ft | 461 kts | 173° |
| 2026-04-26 17:18 | 52.29774 | 10.71188 | 31299 ft | 451 kts | 173° |
| 2026-04-26 17:19 | 52.20627 | 10.73925 | 31298 ft | 445 kts | 173° |
| 2026-04-26 17:19 | 52.14524 | 10.75731 | 31296 ft | 444 kts | 173° |
| 2026-04-26 17:20 | 52.09472 | 10.77239 | 31298 ft | 444 kts | 173° |
| 2026-04-26 17:20 | 52.02371 | 10.79349 | 31291 ft | 443 kts | 173° |
| 2026-04-26 17:21 | 51.96333 | 10.81134 | 31284 ft | 442 kts | 173° |
| 2026-04-26 17:21 | 51.90274 | 10.82933 | 31277 ft | 442 kts | 173° |
| 2026-04-26 17:22 | 51.84222 | 10.84725 | 31290 ft | 441 kts | 173° |
| 2026-04-26 17:22 | 51.78205 | 10.86497 | 31288 ft | 441 kts | 173° |
| 2026-04-26 17:23 | 51.72166 | 10.88264 | 31290 ft | 440 kts | 173° |
| 2026-04-26 17:23 | 51.66197 | 10.90615 | 31284 ft | 445 kts | 161° |
| 2026-04-26 17:24 | 51.60596 | 10.94834 | 31278 ft | 446 kts | 157° |
| 2026-04-26 17:24 | 51.54994 | 10.99118 | 31277 ft | 446 kts | 157° |
| 2026-04-26 17:25 | 51.49381 | 11.03382 | 31286 ft | 445 kts | 157° |
| 2026-04-26 17:25 | 51.43807 | 11.07606 | 31275 ft | 445 kts | 157° |
| 2026-04-26 17:26 | 51.38198 | 11.11840 | 31281 ft | 445 kts | 157° |
| 2026-04-26 17:26 | 51.32591 | 11.16062 | 31287 ft | 445 kts | 157° |
| 2026-04-26 17:27 | 51.27019 | 11.20263 | 31283 ft | 445 kts | 157° |
| 2026-04-26 17:27 | 51.21408 | 11.24475 | 31282 ft | 444 kts | 157° |
| 2026-04-26 17:28 | 51.15805 | 11.28657 | 31277 ft | 444 kts | 157° |
| 2026-04-26 17:28 | 51.10243 | 11.32803 | 31276 ft | 443 kts | 157° |
| 2026-04-26 17:29 | 51.05596 | 11.36263 | 31273 ft | 443 kts | 158° |
| 2026-04-26 17:29 | 50.99057 | 11.41118 | 31271 ft | 443 kts | 158° |
| 2026-04-26 17:30 | 50.93496 | 11.45230 | 31277 ft | 442 kts | 158° |
| 2026-04-26 17:30 | 50.87910 | 11.49348 | 31281 ft | 442 kts | 158° |
| 2026-04-26 17:31 | 50.82334 | 11.53464 | 31280 ft | 441 kts | 157° |
| 2026-04-26 17:31 | 50.76769 | 11.57554 | 31281 ft | 441 kts | 158° |
| 2026-04-26 17:32 | 50.71257 | 11.61585 | 31292 ft | 429 kts | 158° |
| 2026-04-26 17:32 | 50.65910 | 11.65489 | 31292 ft | 425 kts | 158° |
| 2026-04-26 17:33 | 50.60544 | 11.69382 | 31285 ft | 424 kts | 158° |
| 2026-04-26 17:34 | 50.52507 | 11.75230 | 31284 ft | 423 kts | 158° |
| 2026-04-26 17:34 | 50.47154 | 11.79115 | 31273 ft | 423 kts | 158° |
| 2026-04-26 17:35 | 50.41833 | 11.82956 | 31265 ft | 423 kts | 158° |
| 2026-04-26 17:35 | 50.36493 | 11.86798 | 31257 ft | 422 kts | 158° |
| 2026-04-26 17:36 | 50.31145 | 11.90632 | 31253 ft | 422 kts | 158° |
| 2026-04-26 17:36 | 50.25788 | 11.94479 | 31253 ft | 423 kts | 158° |
| 2026-04-26 17:37 | 50.20439 | 11.98296 | 31254 ft | 422 kts | 158° |
| 2026-04-26 17:37 | 50.15090 | 12.02103 | 31254 ft | 422 kts | 158° |
| 2026-04-26 17:38 | 50.07096 | 12.07788 | 31257 ft | 422 kts | 158° |
| 2026-04-26 17:38 | 50.01743 | 12.11578 | 31251 ft | 421 kts | 158° |
| 2026-04-26 17:39 | 49.96440 | 12.15339 | 31249 ft | 421 kts | 158° |
| 2026-04-26 17:39 | 49.91097 | 12.19051 | 31243 ft | 418 kts | 164° |
| 2026-04-26 17:40 | 49.88350 | 12.20294 | 31013 ft | 407 kts | 168° |
| 2026-04-26 17:40 | 49.87425 | 12.20686 | 30881 ft | 405 kts | 168° |
| 2026-04-26 17:40 | 49.82938 | 12.22555 | 30168 ft | 398 kts | 168° |
| 2026-04-26 17:40 | 49.80274 | 12.23648 | 29657 ft | 395 kts | 168° |
| 2026-04-26 17:41 | 49.78510 | 12.24370 | 29326 ft | 393 kts | 168° |
| 2026-04-26 17:41 | 49.75877 | 12.25444 | 28832 ft | 389 kts | 168° |
| 2026-04-26 17:41 | 49.73265 | 12.26510 | 28357 ft | 386 kts | 168° |
| 2026-04-26 17:41 | 49.70676 | 12.27569 | 27882 ft | 383 kts | 168° |
| 2026-04-26 17:42 | 49.67268 | 12.28971 | 27253 ft | 380 kts | 168° |
| 2026-04-26 17:42 | 49.65575 | 12.29670 | 26941 ft | 378 kts | 168° |
| 2026-04-26 17:42 | 49.63035 | 12.30718 | 26488 ft | 376 kts | 168° |
| 2026-04-26 17:42 | 49.60517 | 12.31751 | 26045 ft | 373 kts | 168° |
| 2026-04-26 17:43 | 49.58009 | 12.32775 | 25601 ft | 371 kts | 168° |
| 2026-04-26 17:43 | 49.55512 | 12.33792 | 25172 ft | 368 kts | 168° |
| 2026-04-26 17:43 | 49.53063 | 12.34793 | 24747 ft | 366 kts | 168° |
| 2026-04-26 17:43 | 49.50600 | 12.35803 | 24325 ft | 365 kts | 168° |
| 2026-04-26 17:44 | 49.48146 | 12.36803 | 23914 ft | 363 kts | 168° |
| 2026-04-26 17:44 | 49.45708 | 12.37794 | 23438 ft | 361 kts | 168° |
| 2026-04-26 17:44 | 49.43295 | 12.38773 | 22986 ft | 359 kts | 168° |
| 2026-04-26 17:44 | 49.40892 | 12.39751 | 22552 ft | 356 kts | 168° |
| 2026-04-26 17:45 | 49.38527 | 12.40714 | 22126 ft | 354 kts | 168° |
| 2026-04-26 17:45 | 49.36151 | 12.41681 | 21714 ft | 352 kts | 168° |
| 2026-04-26 17:45 | 49.33789 | 12.42639 | 21304 ft | 349 kts | 168° |
| 2026-04-26 17:45 | 49.31447 | 12.43588 | 20902 ft | 347 kts | 168° |
| 2026-04-26 17:46 | 49.29109 | 12.44534 | 20501 ft | 345 kts | 168° |
| 2026-04-26 17:46 | 49.26792 | 12.45472 | 20113 ft | 343 kts | 168° |
| 2026-04-26 17:46 | 49.24488 | 12.46399 | 19735 ft | 341 kts | 168° |
| 2026-04-26 17:46 | 49.22231 | 12.47303 | 19376 ft | 339 kts | 168° |
| 2026-04-26 17:47 | 49.19955 | 12.48216 | 19009 ft | 337 kts | 168° |
| 2026-04-26 17:47 | 49.18447 | 12.48823 | 18765 ft | 336 kts | 167° |
| 2026-04-26 17:47 | 49.15422 | 12.50040 | 18297 ft | 333 kts | 167° |
| 2026-04-26 17:47 | 49.13183 | 12.50940 | 18226 ft | 333 kts | 167° |
| 2026-04-26 17:48 | 49.10933 | 12.51842 | 18244 ft | 335 kts | 167° |
| 2026-04-26 17:48 | 49.08707 | 12.52734 | 18243 ft | 335 kts | 167° |
| 2026-04-26 17:48 | 49.06454 | 12.53637 | 18242 ft | 335 kts | 167° |
| 2026-04-26 17:48 | 49.04184 | 12.54545 | 18241 ft | 335 kts | 167° |
| 2026-04-26 17:49 | 49.01920 | 12.55450 | 18244 ft | 335 kts | 167° |
| 2026-04-26 17:49 | 48.99658 | 12.56354 | 18244 ft | 336 kts | 167° |
| 2026-04-26 17:49 | 48.97428 | 12.57247 | 18243 ft | 336 kts | 167° |
| 2026-04-26 17:49 | 48.95166 | 12.58146 | 18242 ft | 336 kts | 167° |
| 2026-04-26 17:50 | 48.92897 | 12.59044 | 18237 ft | 336 kts | 168° |
| 2026-04-26 17:50 | 48.90632 | 12.59941 | 18240 ft | 336 kts | 167° |
| 2026-04-26 17:50 | 48.88355 | 12.60849 | 18237 ft | 337 kts | 167° |
| 2026-04-26 17:50 | 48.86079 | 12.61757 | 18143 ft | 338 kts | 167° |
| 2026-04-26 17:51 | 48.83841 | 12.62650 | 17874 ft | 336 kts | 167° |
| 2026-04-26 17:51 | 48.81592 | 12.63546 | 17619 ft | 332 kts | 167° |
| 2026-04-26 17:51 | 48.79365 | 12.64432 | 17241 ft | 330 kts | 167° |
| 2026-04-26 17:51 | 48.77138 | 12.65313 | 16843 ft | 330 kts | 168° |
| 2026-04-26 17:52 | 48.74914 | 12.66191 | 16448 ft | 329 kts | 168° |
| 2026-04-26 17:52 | 48.72696 | 12.67062 | 16061 ft | 329 kts | 168° |
| 2026-04-26 17:52 | 48.70477 | 12.67924 | 15681 ft | 329 kts | 169° |
| 2026-04-26 17:52 | 48.68241 | 12.68647 | 15296 ft | 328 kts | 172° |
| 2026-04-26 17:53 | 48.66017 | 12.69240 | 14922 ft | 327 kts | 173° |
| 2026-04-26 17:53 | 48.63762 | 12.69788 | 14536 ft | 328 kts | 173° |
| 2026-04-26 17:53 | 48.61504 | 12.70324 | 14161 ft | 328 kts | 173° |
| 2026-04-26 17:54 | 48.57000 | 12.71349 | 13346 ft | 326 kts | 174° |
| 2026-04-26 17:54 | 48.54761 | 12.71813 | 13000 ft | 321 kts | 174° |
| 2026-04-26 17:54 | 48.52635 | 12.72251 | 12840 ft | 303 kts | 175° |
| 2026-04-26 17:54 | 48.50582 | 12.72677 | 12535 ft | 294 kts | 175° |
| 2026-04-26 17:55 | 48.48561 | 12.73100 | 12018 ft | 291 kts | 175° |
| 2026-04-26 17:55 | 48.46564 | 12.73521 | 11522 ft | 289 kts | 175° |
| 2026-04-26 17:55 | 48.44577 | 12.73943 | 11135 ft | 288 kts | 175° |
| 2026-04-26 17:55 | 48.42602 | 12.74364 | 10757 ft | 286 kts | 175° |
| 2026-04-26 17:56 | 48.40638 | 12.74783 | 10398 ft | 284 kts | 175° |
| 2026-04-26 17:56 | 48.36790 | 12.76048 | 9581 ft | 282 kts | 169° |
| 2026-04-26 17:57 | 48.32983 | 12.77434 | 9012 ft | 279 kts | 169° |
| 2026-04-26 17:57 | 48.31103 | 12.78118 | 8736 ft | 278 kts | 169° |
| 2026-04-26 17:57 | 48.29249 | 12.78791 | 8456 ft | 276 kts | 169° |
| 2026-04-26 17:57 | 48.27382 | 12.79469 | 8179 ft | 275 kts | 169° |
| 2026-04-26 17:58 | 48.21828 | 12.81490 | 7352 ft | 272 kts | 168° |
| 2026-04-26 17:59 | 48.18156 | 12.82820 | 6797 ft | 269 kts | 168° |
| 2026-04-26 17:59 | 48.16338 | 12.83479 | 6529 ft | 269 kts | 168° |
| 2026-04-26 17:59 | 48.14542 | 12.84128 | 6252 ft | 268 kts | 168° |
| 2026-04-26 17:59 | 48.12730 | 12.84783 | 5981 ft | 266 kts | 168° |
| 2026-04-26 18:00 | 48.10944 | 12.85428 | 5706 ft | 257 kts | 168° |
| 2026-04-26 18:00 | 48.09272 | 12.86032 | 5456 ft | 242 kts | 168° |
| 2026-04-26 18:00 | 48.07684 | 12.86603 | 5295 ft | 225 kts | 167° |
| 2026-04-26 18:00 | 48.06181 | 12.87145 | 5216 ft | 220 kts | 167° |
| 2026-04-26 18:01 | 48.04701 | 12.87675 | 5123 ft | 218 kts | 167° |
| 2026-04-26 18:01 | 48.03233 | 12.88199 | 5024 ft | 213 kts | 167° |
| 2026-04-26 18:01 | 48.01817 | 12.88704 | 4929 ft | 205 kts | 167° |
| 2026-04-26 18:01 | 48.00454 | 12.89177 | 4827 ft | 197 kts | 171° |
| 2026-04-26 18:02 | 47.99110 | 12.89303 | 4746 ft | 189 kts | 179° |
| 2026-04-26 18:02 | 47.98243 | 12.89327 | 4691 ft | 186 kts | 179° |
| 2026-04-26 18:02 | 47.96552 | 12.89566 | 4590 ft | 184 kts | 160° |
| 2026-04-26 18:02 | 47.95352 | 12.90249 | 4462 ft | 183 kts | 156° |
| 2026-04-26 18:03 | 47.94166 | 12.90990 | 4340 ft | 185 kts | 156° |
| 2026-04-26 18:03 | 47.92980 | 12.91741 | 4124 ft | 186 kts | 155° |
| 2026-04-26 18:03 | 47.91786 | 12.92498 | 3908 ft | 184 kts | 155° |
| 2026-04-26 18:03 | 47.90611 | 12.93245 | 3663 ft | 183 kts | 155° |
| 2026-04-26 18:04 | 47.89442 | 12.93987 | 3399 ft | 181 kts | 155° |
| 2026-04-26 18:04 | 47.88340 | 12.94686 | 3178 ft | 166 kts | 154° |
| 2026-04-26 18:04 | 47.87315 | 12.95336 | 2941 ft | 154 kts | 154° |
| 2026-04-26 18:05 | 47.85379 | 12.96565 | 2519 ft | 150 kts | 155° |
| 2026-04-26 18:05 | 47.84420 | 12.97174 | 2318 ft | 150 kts | 156° |
| 2026-04-26 18:05 | 47.83472 | 12.97778 | 2133 ft | 150 kts | 155° |
| 2026-04-26 18:05 | 47.82520 | 12.98386 | 1926 ft | 148 kts | 156° |
| 2026-04-26 18:06 | 47.81574 | 12.98985 | 1728 ft | 147 kts | 155° |
| 2026-04-26 18:06 | 47.80626 | 12.99582 | 1524 ft | 147 kts | 155° |
| 2026-04-26 18:06 | 47.79711 | 13.00160 | 1424 ft | 134 kts | 156° |
| 2026-04-26 18:06 | 47.79081 | 13.00555 | 1417 ft | 55 kts | 157° |
| 2026-04-26 18:07 | 47.78814 | 13.00724 | 1422 ft | 40 kts | 157° |
| 2026-04-26 18:07 | 47.78650 | 13.00826 | 1422 ft | 23 kts | 156° |
| 2026-04-26 18:07 | 47.78579 | 13.00850 | 1421 ft | 8 kts | 194° |
| 2026-04-26 18:07 | 47.78556 | 13.00814 | 1419 ft | 7 kts | 243° |
| 2026-04-26 18:08 | 47.78536 | 13.00750 | 1422 ft | 3 kts | 245° |
| 2026-04-26 18:08 | 47.78529 | 13.00717 | 1420 ft | 5 kts | 256° |
| 2026-04-26 18:08 | 47.78528 | 13.00675 | 1421 ft | 5 kts | 275° |
| 2026-04-26 18:08 | 47.78549 | 13.00627 | 1421 ft | 4 kts | 322° |
| 2026-04-26 18:09 | 47.78582 | 13.00603 | 1422 ft | 5 kts | 335° |
| 2026-04-26 18:09 | 47.78610 | 13.00584 | 1422 ft | 5 kts | 338° |
| 2026-04-26 18:09 | 47.78684 | 13.00539 | 1420 ft | 17 kts | 337° |
| 2026-04-26 18:09 | 47.78804 | 13.00463 | 1417 ft | 20 kts | 336° |
| 2026-04-26 18:10 | 47.78911 | 13.00396 | 1415 ft | 14 kts | 337° |
| 2026-04-26 18:10 | 47.78949 | 13.00350 | 1415 ft | 6 kts | 296° |
| 2026-04-26 18:10 | 47.78952 | 13.00307 | 1416 ft | 3 kts | 273° |
| 2026-04-26 18:10 | 47.78953 | 13.00246 | 1418 ft | 5 kts | 272° |
| 2026-04-26 18:11 | 47.78956 | 13.00193 | 1419 ft | 8 kts | 281° |
| 2026-04-26 18:11 | 47.78977 | 13.00144 | 1421 ft | 4 kts | 323° |
| 2026-04-26 18:11 | 47.79006 | 13.00125 | 1421 ft | 5 kts | 337° |
| 2026-04-26 18:11 | 47.79023 | 13.00142 | 1420 ft | 4 kts | 64° |
| 2026-04-26 18:12 | 47.79016 | 13.00190 | 1420 ft | 5 kts | 104° |
| 2026-04-26 18:12 | 47.79009 | 13.00232 | 1419 ft | 4 kts | 102° |
| 2026-04-26 18:12 | 47.79009 | 13.00233 | 1419 ft | 0 kts | 102° |